createdAt,value
2018-02-10T00:00:23.059Z,95.60
2018-02-10T00:02:50.556Z,95.60
2018-02-10T00:05:18.038Z,95.60
2018-02-10T00:07:45.544Z,95.60
2018-02-10T00:10:13.031Z,95.40
2018-02-10T00:12:40.540Z,95.60
2018-02-10T00:15:08.024Z,95.80
2018-02-10T00:17:35.497Z,96.00
2018-02-10T00:20:03.001Z,96.20
2018-02-10T00:22:35.169Z,95.80
2018-02-10T00:25:02.722Z,95.80
2018-02-10T00:27:30.204Z,95.80
2018-02-10T00:29:57.680Z,95.80
2018-02-10T00:32:25.177Z,95.80
2018-02-10T00:34:53.422Z,96.10
2018-02-10T00:37:20.941Z,95.80
2018-02-10T00:39:48.416Z,95.90
2018-02-10T00:42:15.906Z,95.90
2018-02-10T00:44:43.380Z,96.00
2018-02-10T00:47:11.650Z,96.30
2018-02-10T00:49:39.888Z,96.40
2018-02-10T00:52:07.402Z,96.40
2018-02-10T00:54:34.862Z,96.30
2018-02-10T00:57:02.374Z,96.30
2018-02-10T00:59:29.839Z,96.10
2018-02-10T01:01:57.335Z,96.00
2018-02-10T01:04:24.814Z,96.00
2018-02-10T01:06:52.355Z,96.10
2018-02-10T01:09:19.836Z,96.00
2018-02-10T01:11:47.364Z,96.30
2018-02-10T01:14:14.944Z,96.20
2018-02-10T01:16:42.541Z,96.30
2018-02-10T01:19:10.006Z,96.40
2018-02-10T01:21:37.492Z,95.70
2018-02-10T01:24:05.784Z,96.10
2018-02-10T01:26:33.242Z,96.10
2018-02-10T01:29:00.745Z,96.00
2018-02-10T01:31:28.225Z,96.00
2018-02-10T01:33:55.717Z,95.90
2018-02-10T01:36:23.221Z,95.70
2018-02-10T01:38:50.702Z,95.80
2018-02-10T01:41:18.952Z,95.90
2018-02-10T01:43:46.450Z,95.80
2018-02-10T01:46:14.692Z,95.90
2018-02-10T01:48:42.194Z,95.90
2018-02-10T01:51:09.667Z,96.40
2018-02-10T01:53:38.052Z,95.80
2018-02-10T01:56:05.519Z,96.00
2018-02-10T01:58:33.025Z,96.00
2018-02-10T02:01:01.272Z,95.60
2018-02-10T02:03:28.766Z,95.60
2018-02-10T02:05:57.025Z,95.10
2018-02-10T02:08:24.548Z,95.10
2018-02-10T02:10:52.057Z,95.00
2018-02-10T02:13:20.316Z,95.00
2018-02-10T02:15:47.818Z,95.00
2018-02-10T02:18:15.314Z,94.90
2018-02-10T02:20:42.824Z,94.90
2018-02-10T02:23:10.294Z,94.90
2018-02-10T02:25:37.855Z,94.80
2018-02-10T02:28:05.356Z,94.70
2018-02-10T02:30:32.827Z,95.20
2018-02-10T02:33:00.299Z,95.20
2018-02-10T02:35:28.572Z,95.20
2018-02-10T02:37:56.800Z,95.50
2018-02-10T02:40:24.336Z,95.40
2018-02-10T02:42:52.552Z,95.40
2018-02-10T02:45:20.063Z,95.40
2018-02-10T02:47:47.567Z,95.40
2018-02-10T02:50:15.053Z,95.40
2018-02-10T02:52:43.736Z,95.20
2018-02-10T02:55:11.972Z,95.70
2018-02-10T02:57:39.443Z,95.40
2018-02-10T03:00:06.952Z,95.50
2018-02-10T03:02:34.438Z,95.10
2018-02-10T03:05:01.985Z,94.50
2018-02-10T03:07:29.487Z,95.00
2018-02-10T03:09:56.983Z,95.00
2018-02-10T03:12:24.451Z,95.00
2018-02-10T03:14:51.946Z,95.10
2018-02-10T03:17:19.456Z,95.20
2018-02-10T03:19:46.956Z,95.00
2018-02-10T03:22:14.449Z,94.80
2018-02-10T03:24:41.943Z,95.00
2018-02-10T03:27:09.426Z,94.30
2018-02-10T03:29:36.915Z,94.30
2018-02-10T03:32:04.398Z,94.20
2018-02-10T03:34:32.692Z,94.80
2018-02-10T03:37:00.160Z,94.70
2018-02-10T03:39:27.652Z,94.70
2018-02-10T03:41:55.138Z,95.10
2018-02-10T03:44:23.404Z,95.40
2018-02-10T03:46:50.877Z,95.40
2018-02-10T03:49:19.165Z,95.40
2018-02-10T03:51:46.621Z,95.70
2018-02-10T03:54:14.128Z,95.00
2018-02-10T03:56:41.595Z,95.20
2018-02-10T03:59:09.083Z,95.30
2018-02-10T04:01:37.334Z,94.80
2018-02-10T04:04:04.840Z,94.80
2018-02-10T04:06:32.312Z,95.00
2018-02-10T04:08:59.911Z,95.30
2018-02-10T04:11:27.379Z,95.50
2018-02-10T04:13:55.640Z,95.50
2018-02-10T04:16:23.147Z,95.50
2018-02-10T04:18:50.636Z,95.30
2018-02-10T04:21:18.120Z,95.40
2018-02-10T04:23:45.629Z,95.60
2018-02-10T04:26:13.109Z,95.50
2018-02-10T04:28:40.612Z,95.40
2018-02-10T04:31:08.852Z,95.70
2018-02-10T04:33:36.356Z,95.70
2018-02-10T04:36:03.819Z,95.20
2018-02-10T04:38:31.328Z,95.60
2018-02-10T04:40:58.794Z,95.70
2018-02-10T04:43:26.311Z,95.80
2018-02-10T04:45:53.807Z,95.90
2018-02-10T04:48:21.304Z,96.10
2018-02-10T04:50:48.783Z,96.30
2018-02-10T04:53:16.304Z,96.10
2018-02-10T04:55:44.537Z,96.30
2018-02-10T04:58:11.999Z,96.20
2018-02-10T05:00:39.520Z,96.40
2018-02-10T05:03:07.012Z,96.20
2018-02-10T05:05:34.484Z,96.10
2018-02-10T05:08:01.987Z,96.20
2018-02-10T05:10:29.463Z,95.90
2018-02-10T05:12:56.944Z,95.80
2018-02-10T05:15:24.448Z,95.90
2018-02-10T05:17:52.674Z,95.60
2018-02-10T05:20:20.188Z,95.60
2018-02-10T05:22:48.476Z,95.90
2018-02-10T05:25:15.939Z,95.90
2018-02-10T05:27:43.406Z,95.70
2018-02-10T05:30:10.910Z,95.60
2018-02-10T05:32:38.384Z,95.30
2018-02-10T05:35:06.647Z,95.20
2018-02-10T05:37:34.116Z,95.20
2018-02-10T05:40:02.384Z,95.60
2018-02-10T05:42:30.624Z,95.70
2018-02-10T05:44:58.136Z,95.20
2018-02-10T05:47:25.617Z,95.30
2018-02-10T05:49:53.107Z,95.10
2018-02-10T05:52:20.571Z,95.50
2018-02-10T05:54:48.071Z,95.20
2018-02-10T05:57:15.544Z,94.50
2018-02-10T05:59:43.048Z,94.30
2018-02-10T06:02:10.538Z,93.90
2018-02-10T06:04:38.803Z,94.40
2018-02-10T06:07:07.043Z,94.60
2018-02-10T06:09:34.555Z,94.60
2018-02-10T06:12:02.019Z,93.60
2018-02-10T06:14:29.511Z,94.00
2018-02-10T06:16:56.992Z,94.20
2018-02-10T06:19:24.485Z,93.90
2018-02-10T06:21:51.968Z,94.30
2018-02-10T06:24:19.576Z,94.20
2018-02-10T06:26:47.037Z,93.40
2018-02-10T06:29:15.281Z,94.40
2018-02-10T06:31:42.771Z,94.10
2018-02-10T06:34:10.248Z,94.10
2018-02-10T06:36:38.525Z,94.30
2018-02-10T06:39:06.752Z,94.10
2018-02-10T06:41:34.242Z,94.00
2018-02-10T06:44:02.475Z,94.50
2018-02-10T06:46:29.999Z,94.50
2018-02-10T06:48:57.464Z,94.50
2018-02-10T06:51:24.974Z,94.60
2018-02-10T06:53:52.456Z,94.60
2018-02-10T06:56:20.712Z,94.70
2018-02-10T06:58:48.201Z,94.70
2018-02-10T07:01:15.710Z,94.70
2018-02-10T07:03:43.166Z,94.30
2018-02-10T07:06:10.667Z,94.60
2018-02-10T07:08:38.960Z,94.50
2018-02-10T07:11:06.435Z,94.50
2018-02-10T07:13:33.898Z,94.00
2018-02-10T07:16:01.408Z,94.30
2018-02-10T07:18:28.910Z,93.70
2018-02-10T07:20:56.384Z,94.20
2018-02-10T07:23:24.088Z,94.10
2018-02-10T07:25:52.435Z,93.60
2018-02-10T07:28:19.884Z,93.50
2018-02-10T07:30:48.158Z,92.90
2018-02-10T07:33:15.781Z,92.90
2018-02-10T07:35:43.273Z,93.40
2018-02-10T07:38:10.745Z,93.50
2018-02-10T07:40:38.244Z,93.60
2018-02-10T07:43:06.487Z,93.00
2018-02-10T07:45:33.988Z,92.90
2018-02-10T07:48:02.218Z,92.70
2018-02-10T07:50:29.735Z,92.70
2018-02-10T07:52:57.212Z,93.10
2018-02-10T07:55:24.712Z,92.50
2018-02-10T07:57:52.951Z,92.40
2018-02-10T08:00:20.442Z,92.40
2018-02-10T08:02:47.896Z,92.60
2018-02-10T08:05:15.400Z,92.50
2018-02-10T08:07:42.887Z,92.10
2018-02-10T08:10:10.381Z,91.50
2018-02-10T08:12:38.630Z,91.40
2018-02-10T08:15:06.152Z,91.40
2018-02-10T08:17:33.615Z,91.10
2018-02-10T08:20:01.135Z,91.60
2018-02-10T08:22:29.388Z,91.70
2018-02-10T08:24:56.911Z,91.70
2018-02-10T08:27:24.380Z,91.80
2018-02-10T08:29:51.881Z,91.90
2018-02-10T08:32:20.111Z,91.20
2018-02-10T08:34:47.609Z,91.10
2018-02-10T08:37:15.084Z,91.70
2018-02-10T08:39:42.592Z,91.20
2018-02-10T08:42:10.075Z,91.20
2018-02-10T08:44:37.578Z,90.70
2018-02-10T08:47:05.119Z,91.70
2018-02-10T08:49:32.591Z,90.80
2018-02-10T08:52:00.084Z,90.40
2018-02-10T08:54:27.574Z,90.40
2018-02-10T08:56:55.046Z,90.40
2018-02-10T08:59:22.571Z,90.60
2018-02-10T09:01:50.058Z,89.90
2018-02-10T09:04:18.316Z,90.20
2018-02-10T09:06:45.797Z,90.20
2018-02-10T09:09:14.072Z,89.80
2018-02-10T09:11:42.319Z,89.10
2018-02-10T09:14:09.811Z,89.10
2018-02-10T09:16:37.306Z,88.30
2018-02-10T09:19:04.944Z,89.20
2018-02-10T09:21:32.412Z,89.50
2018-02-10T09:23:59.906Z,88.20
2018-02-10T09:26:27.389Z,88.20
2018-02-10T09:28:55.793Z,88.50
2018-02-10T09:31:23.263Z,88.40
2018-02-10T09:33:50.752Z,90.40
2018-02-10T09:36:18.251Z,90.70
2018-02-10T09:38:45.724Z,91.00
2018-02-10T09:41:13.238Z,91.00
2018-02-10T09:43:40.714Z,90.70
2018-02-10T09:46:08.982Z,92.20
2018-02-10T09:48:37.246Z,92.50
2018-02-10T09:51:04.887Z,92.40
2018-02-10T09:53:41.291Z,91.70
2018-02-10T09:56:10.308Z,92.00
2018-02-10T09:58:37.784Z,91.90
2018-02-10T10:01:05.281Z,91.50
2018-02-10T10:03:32.756Z,90.50
2018-02-10T10:06:01.057Z,90.20
2018-02-10T10:08:31.143Z,90.10
2018-02-10T10:10:58.767Z,89.70
2018-02-10T10:13:26.240Z,89.50
2018-02-10T10:15:53.749Z,89.90
2018-02-10T10:18:21.320Z,89.00
2018-02-10T10:20:48.808Z,88.90
2018-02-10T10:23:16.281Z,89.20
2018-02-10T10:25:43.775Z,89.50
2018-02-10T10:28:11.273Z,88.10
2018-02-10T10:30:38.774Z,88.60
2018-02-10T10:33:07.029Z,85.40
2018-02-10T10:35:34.581Z,85.40
2018-02-10T10:38:02.068Z,84.20
2018-02-10T10:40:30.359Z,83.30
2018-02-10T10:42:57.867Z,83.30
2018-02-10T10:45:25.373Z,85.20
2018-02-10T10:47:53.635Z,83.90
2018-02-10T10:50:21.900Z,81.50
2018-02-10T10:52:49.384Z,81.90
2018-02-10T10:55:16.874Z,82.10
2018-02-10T10:57:44.363Z,82.20
2018-02-10T11:00:11.871Z,81.50
2018-02-10T11:02:39.382Z,82.80
2018-02-10T11:05:06.898Z,82.40
2018-02-10T11:07:34.379Z,82.40
2018-02-10T11:10:01.874Z,81.90
2018-02-10T11:12:30.126Z,82.70
2018-02-10T11:14:57.648Z,82.60
2018-02-10T11:17:25.131Z,83.60
2018-02-10T11:19:52.693Z,84.50
2018-02-10T11:22:20.163Z,85.50
2018-02-10T11:24:47.698Z,85.50
2018-02-10T11:27:15.411Z,86.10
2018-02-10T11:29:43.704Z,88.10
2018-02-10T11:32:11.172Z,88.00
2018-02-10T11:34:38.675Z,90.10
2018-02-10T11:37:06.155Z,88.40
2018-02-10T11:39:34.426Z,89.00
2018-02-10T11:42:01.915Z,89.20
2018-02-10T11:44:29.426Z,88.60
2018-02-10T11:46:56.910Z,87.30
2018-02-10T11:49:25.173Z,90.60
2018-02-10T11:51:52.642Z,90.60
2018-02-10T11:54:20.917Z,88.10
2018-02-10T11:56:49.163Z,87.40
2018-02-10T11:59:16.646Z,87.30
2018-02-10T12:01:44.905Z,87.50
2018-02-10T12:04:12.395Z,87.50
2018-02-10T12:06:40.669Z,87.80
2018-02-10T12:09:08.972Z,86.20
2018-02-10T12:11:36.442Z,86.20
2018-02-10T12:14:03.958Z,86.00
2018-02-10T12:16:32.203Z,86.80
2018-02-10T12:18:59.689Z,86.90
2018-02-10T12:21:27.979Z,86.10
2018-02-10T12:23:55.545Z,86.10
2018-02-10T12:26:23.028Z,84.70
2018-02-10T12:28:50.504Z,85.20
2018-02-10T12:31:17.999Z,86.10
2018-02-10T12:33:46.321Z,84.50
2018-02-10T12:36:13.838Z,84.50
2018-02-10T12:38:42.079Z,84.70
2018-02-10T12:41:09.561Z,84.70
2018-02-10T12:43:37.795Z,84.50
2018-02-10T12:46:05.302Z,84.50
2018-02-10T12:48:39.168Z,83.40
2018-02-10T12:51:06.661Z,83.20
2018-02-10T12:53:34.900Z,83.40
2018-02-10T12:56:02.356Z,83.40
2018-02-10T12:58:29.868Z,83.60
2018-02-10T13:00:57.390Z,84.00
2018-02-10T13:03:24.868Z,83.70
2018-02-10T13:05:53.133Z,85.00
2018-02-10T13:08:20.600Z,84.90
2018-02-10T13:10:48.875Z,83.70
2018-02-10T13:13:16.352Z,83.70
2018-02-10T13:15:44.618Z,83.50
2018-02-10T13:18:12.870Z,83.00
2018-02-10T13:20:40.756Z,83.00
2018-02-10T13:23:09.008Z,83.40
2018-02-10T13:25:36.497Z,83.30
2018-02-10T13:28:04.792Z,84.40
2018-02-10T13:30:32.268Z,84.20
2018-02-10T13:32:59.779Z,83.80
2018-02-10T13:35:28.031Z,84.30
2018-02-10T13:37:56.332Z,83.80
2018-02-10T13:40:23.821Z,83.80
2018-02-10T13:42:51.332Z,84.20
2018-02-10T13:45:18.816Z,84.20
2018-02-10T13:47:47.080Z,84.70
2018-02-10T13:50:15.326Z,85.10
2018-02-10T13:52:42.819Z,84.60
2018-02-10T13:55:11.064Z,84.30
2018-02-10T13:57:38.568Z,84.30
2018-02-10T14:00:06.052Z,83.80
2018-02-10T14:02:33.543Z,83.90
2018-02-10T14:05:01.034Z,84.10
2018-02-10T14:07:29.320Z,83.90
2018-02-10T14:09:56.849Z,83.90
2018-02-10T14:12:24.371Z,83.90
2018-02-10T14:14:51.870Z,84.20
2018-02-10T14:17:20.176Z,84.00
2018-02-10T14:19:47.650Z,84.00
2018-02-10T14:22:15.156Z,84.40
2018-02-10T14:24:43.055Z,83.70
2018-02-10T14:27:10.598Z,83.80
2018-02-10T14:29:38.078Z,84.60
2018-02-10T14:32:05.584Z,84.90
2018-02-10T14:34:33.046Z,84.50
2018-02-10T14:37:00.558Z,84.20
2018-02-10T14:39:28.019Z,83.90
2018-02-10T14:41:55.525Z,84.40
2018-02-10T14:44:22.996Z,84.90
2018-02-10T14:46:50.503Z,84.70
2018-02-10T14:49:17.973Z,84.70
2018-02-10T14:51:45.475Z,85.00
2018-02-10T14:54:13.721Z,84.90
2018-02-10T14:56:41.206Z,84.90
2018-02-10T14:59:09.488Z,85.00
2018-02-10T15:01:37.743Z,85.80
2018-02-10T15:04:05.274Z,85.80
2018-02-10T15:06:32.749Z,85.10
2018-02-10T15:09:00.260Z,85.10
2018-02-10T15:11:27.768Z,85.50
2018-02-10T15:13:55.325Z,86.40
2018-02-10T15:16:22.786Z,86.30
2018-02-10T15:18:50.304Z,85.70
2018-02-10T15:21:17.764Z,86.00
2018-02-10T15:23:45.272Z,86.00
2018-02-10T15:26:12.763Z,85.60
2018-02-10T15:28:41.008Z,85.90
2018-02-10T15:31:20.486Z,86.50
2018-02-10T15:34:00.001Z,85.70
2018-02-10T15:36:28.253Z,85.80
2018-02-10T15:38:55.755Z,85.70
2018-02-10T15:41:23.234Z,85.60
2018-02-10T15:43:50.746Z,85.70
2018-02-10T15:46:18.997Z,86.20
2018-02-10T15:48:46.513Z,86.20
2018-02-10T15:51:14.001Z,86.50
2018-02-10T15:53:41.508Z,86.80
2018-02-10T15:56:08.989Z,86.40
2018-02-10T15:58:36.492Z,86.50
2018-02-10T16:01:03.979Z,86.40
2018-02-10T16:03:32.257Z,86.40
2018-02-10T16:06:00.549Z,86.30
2018-02-10T16:08:28.042Z,86.30
2018-02-10T16:10:55.540Z,86.60
2018-02-10T16:13:23.804Z,86.70
2018-02-10T16:15:51.294Z,86.70
2018-02-10T16:18:18.834Z,86.40
2018-02-10T16:20:47.074Z,86.60
2018-02-10T16:23:14.581Z,86.50
2018-02-10T16:25:42.066Z,86.80
2018-02-10T16:28:09.599Z,86.50
2018-02-10T16:30:37.059Z,86.00
2018-02-10T16:33:04.555Z,86.20
2018-02-10T16:35:32.075Z,86.50
2018-02-10T16:37:59.582Z,86.60
2018-02-10T16:40:27.084Z,87.00
2018-02-10T16:42:54.573Z,86.70
2018-02-10T16:45:22.081Z,86.00
2018-02-10T16:47:50.327Z,85.80
2018-02-10T16:50:17.830Z,85.80
2018-02-10T16:52:46.072Z,85.70
2018-02-10T16:55:13.581Z,85.70
2018-02-10T16:57:41.051Z,85.50
2018-02-10T17:00:08.591Z,85.30
2018-02-10T17:02:36.100Z,85.00
2018-02-10T17:05:03.608Z,85.10
2018-02-10T17:07:31.078Z,85.10
2018-02-10T17:09:58.586Z,84.80
2018-02-10T17:12:26.064Z,85.50
2018-02-10T17:14:54.333Z,84.70
2018-02-10T17:17:22.581Z,84.60
2018-02-10T17:19:50.201Z,84.60
2018-02-10T17:22:17.692Z,84.90
2018-02-10T17:24:45.207Z,84.20
2018-02-10T17:27:12.694Z,82.80
2018-02-10T17:29:40.198Z,83.40
2018-02-10T17:32:08.442Z,82.50
2018-02-10T17:34:35.984Z,82.50
2018-02-10T17:37:03.449Z,82.00
2018-02-10T17:39:30.987Z,82.10
2018-02-10T17:41:58.454Z,81.80
2018-02-10T17:44:25.981Z,81.80
2018-02-10T17:46:54.243Z,81.90
2018-02-10T17:49:21.719Z,81.90
2018-02-10T17:51:50.053Z,82.40
2018-02-10T17:54:17.597Z,82.40
2018-02-10T17:56:45.067Z,82.70
2018-02-10T17:59:12.556Z,83.40
2018-02-10T18:01:41.606Z,84.40
2018-02-10T18:04:09.126Z,84.20
2018-02-10T18:06:36.593Z,84.20
2018-02-10T18:09:04.111Z,84.20
2018-02-10T18:11:31.612Z,84.70
2018-02-10T18:13:59.084Z,85.10
2018-02-10T18:16:26.603Z,85.60
2018-02-10T18:18:54.868Z,86.40
2018-02-10T18:21:23.142Z,87.20
2018-02-10T18:23:51.390Z,88.50
2018-02-10T18:26:18.905Z,87.80
2018-02-10T18:28:46.387Z,88.40
2018-02-10T18:31:13.910Z,88.70
2018-02-10T18:33:42.255Z,88.90
2018-02-10T18:36:09.754Z,89.20
2018-02-10T18:38:37.226Z,89.40
2018-02-10T18:41:04.818Z,89.70
2018-02-10T18:43:32.297Z,90.00
2018-02-10T18:46:00.542Z,90.10
2018-02-10T18:48:28.485Z,90.20
2018-02-10T18:50:55.973Z,90.40
2018-02-10T18:53:23.459Z,90.40
2018-02-10T18:55:50.976Z,90.50
2018-02-10T18:58:19.247Z,90.50
2018-02-10T19:00:46.728Z,90.50
2018-02-10T19:03:14.245Z,90.40
2018-02-10T19:05:41.718Z,90.40
2018-02-10T19:08:09.211Z,90.60
2018-02-10T19:10:36.692Z,90.70
2018-02-10T19:13:05.001Z,90.80
2018-02-10T19:15:32.491Z,90.80
2018-02-10T19:18:00.025Z,90.80
2018-02-10T19:20:27.508Z,91.00
2018-02-10T19:22:55.139Z,91.00
2018-02-10T19:25:22.635Z,91.10
2018-02-10T19:27:50.141Z,91.20
2018-02-10T19:30:17.670Z,91.20
2018-02-10T19:32:45.184Z,91.40
2018-02-10T19:35:12.691Z,91.40
2018-02-10T19:37:40.194Z,91.50
2018-02-10T19:40:07.689Z,91.40
2018-02-10T19:42:35.307Z,91.40
2018-02-10T19:45:02.824Z,91.40
2018-02-10T19:47:30.299Z,91.40
2018-02-10T19:49:57.881Z,91.50
2018-02-10T19:52:25.364Z,91.50
2018-02-10T19:54:52.929Z,91.50
2018-02-10T19:57:20.420Z,91.40
2018-02-10T19:59:48.697Z,91.50
2018-02-10T20:02:16.931Z,91.80
2018-02-10T20:04:44.457Z,91.50
2018-02-10T20:07:11.957Z,91.40
2018-02-10T20:09:39.448Z,91.20
2018-02-10T20:12:07.715Z,91.00
2018-02-10T20:14:35.218Z,91.00
2018-02-10T20:17:02.708Z,90.90
2018-02-10T20:19:30.238Z,91.00
2018-02-10T20:21:57.732Z,90.80
2018-02-10T20:24:25.257Z,90.80
2018-02-10T20:26:52.738Z,90.80
2018-02-10T20:29:20.991Z,90.80
2018-02-10T20:31:48.476Z,90.80
2018-02-10T20:34:15.968Z,90.80
2018-02-10T20:36:43.475Z,90.90
2018-02-10T20:39:11.181Z,90.90
2018-02-10T20:41:38.683Z,91.30
2018-02-10T20:44:06.215Z,91.50
2018-02-10T20:46:34.468Z,91.50
2018-02-10T20:49:01.992Z,91.50
2018-02-10T20:51:29.536Z,91.70
2018-02-10T20:53:57.010Z,91.70
2018-02-10T20:56:24.527Z,91.80
2018-02-10T20:58:52.777Z,92.00
2018-02-10T21:01:20.294Z,92.00
2018-02-10T21:03:47.771Z,92.00
2018-02-10T21:06:15.284Z,92.00
2018-02-10T21:08:42.761Z,92.10
2018-02-10T21:11:10.260Z,92.20
2018-02-10T21:13:37.757Z,92.20
2018-02-10T21:16:05.265Z,92.20
2018-02-10T21:18:32.748Z,92.30
2018-02-10T21:21:00.430Z,92.30
2018-02-10T21:23:27.969Z,92.50
2018-02-10T21:25:56.280Z,92.70
2018-02-10T21:28:23.788Z,92.70
2018-02-10T21:30:51.332Z,92.70
2018-02-10T21:33:18.838Z,92.70
2018-02-10T21:35:47.062Z,92.90
2018-02-10T21:38:14.567Z,92.90
2018-02-10T21:40:42.822Z,92.80
2018-02-10T21:43:10.334Z,92.70
2018-02-10T21:45:37.825Z,92.70
2018-02-10T21:48:05.348Z,92.60
2018-02-10T21:50:32.837Z,92.50
2018-02-10T21:53:00.394Z,92.50
2018-02-10T21:55:27.864Z,92.40
2018-02-10T21:57:55.394Z,92.40
2018-02-10T22:00:22.892Z,92.30
2018-02-10T22:02:51.578Z,92.40
2018-02-10T22:05:19.822Z,92.40
2018-02-10T22:07:47.303Z,92.10
2018-02-10T22:10:14.804Z,92.00
2018-02-10T22:12:42.318Z,92.00
2018-02-10T22:15:09.798Z,91.90
2018-02-10T22:17:38.067Z,91.90
2018-02-10T22:20:06.302Z,91.80
2018-02-10T22:22:33.813Z,91.80
2018-02-10T22:25:02.110Z,91.80
2018-02-10T22:27:29.607Z,91.80
2018-02-10T22:29:57.079Z,91.80
2018-02-10T22:32:24.590Z,91.90
2018-02-10T22:34:52.064Z,91.90
2018-02-10T22:37:19.576Z,91.90
2018-02-10T22:39:47.088Z,91.90
2018-02-10T22:42:14.607Z,91.90
2018-02-10T22:44:42.474Z,91.90
2018-02-10T22:47:09.949Z,91.90
2018-02-10T22:49:37.443Z,91.80
2018-02-10T22:52:04.924Z,91.90
2018-02-10T22:54:33.195Z,91.90
2018-02-10T22:57:00.660Z,91.90
2018-02-10T22:59:28.936Z,91.80
2018-02-10T23:01:57.188Z,91.80
2018-02-10T23:04:24.680Z,91.80
2018-02-10T23:06:52.165Z,91.60
2018-02-10T23:09:19.685Z,91.60
2018-02-10T23:11:47.924Z,91.40
2018-02-10T23:14:15.449Z,91.40
2018-02-10T23:16:42.928Z,91.20
2018-02-10T23:19:10.475Z,91.10
2018-02-10T23:21:37.953Z,91.00
2018-02-10T23:24:05.483Z,90.90
2018-02-10T23:26:32.946Z,90.70
2018-02-10T23:29:00.453Z,90.60
2018-02-10T23:31:27.932Z,90.50
2018-02-10T23:33:56.195Z,90.30
2018-02-10T23:36:23.670Z,90.30
2018-02-10T23:38:51.168Z,90.40
2018-02-10T23:41:18.637Z,90.30
2018-02-10T23:43:46.134Z,90.30
2018-02-10T23:46:14.367Z,90.30
2018-02-10T23:48:41.862Z,90.30
2018-02-10T23:51:10.101Z,90.20
2018-02-10T23:53:38.390Z,90.20
2018-02-10T23:56:05.870Z,90.20
2018-02-10T23:58:34.144Z,90.10
